sensor_id;sensor_type;location;lat;lon;timestamp;pressure;altitude;pressure_sealevel;temperature;humidity
51617;BME280;37697;52.588;13.394;2023-05-08T00:01:34;102202.23;;;7.57;66.76
51617;BME280;37697;52.588;13.394;2023-05-08T00:06:40;102195.52;;;7.49;66.94
51617;BME280;37697;52.588;13.394;2023-05-08T00:11:45;102187.83;;;7.45;66.98
51617;BME280;37697;52.588;13.394;2023-05-08T00:16:51;102187.98;;;7.41;67.20
51617;BME280;37697;52.588;13.394;2023-05-08T00:21:56;102185.11;;;7.34;67.32
51617;BME280;37697;52.588;13.394;2023-05-08T00:27:02;102185.63;;;7.29;67.54
51617;BME280;37697;52.588;13.394;2023-05-08T00:32:07;102193.75;;;7.24;67.98
51617;BME280;37697;52.588;13.394;2023-05-08T00:37:13;102198.91;;;7.18;68.33
51617;BME280;37697;52.588;13.394;2023-05-08T00:42:18;102196.55;;;7.12;68.40
51617;BME280;37697;52.588;13.394;2023-05-08T00:47:24;102200.52;;;7.08;68.30
51617;BME280;37697;52.588;13.394;2023-05-08T00:52:31;102204.44;;;7.04;68.44
51617;BME280;37697;52.588;13.394;2023-05-08T00:57:37;102211.31;;;7.00;68.43
51617;BME280;37697;52.588;13.394;2023-05-08T01:02:43;102209.22;;;6.97;68.53
51617;BME280;37697;52.588;13.394;2023-05-08T01:07:49;102211.95;;;6.93;68.58
51617;BME280;37697;52.588;13.394;2023-05-08T01:13:03;102213.03;;;6.90;68.65
51617;BME280;37697;52.588;13.394;2023-05-08T01:18:16;102215.39;;;6.87;68.78
51617;BME280;37697;52.588;13.394;2023-05-08T01:23:40;102214.36;;;6.83;68.71
51617;BME280;37697;52.588;13.394;2023-05-08T01:29:12;102213.02;;;6.78;68.71
51617;BME280;37697;52.588;13.394;2023-05-08T01:34:23;102214.52;;;6.75;68.71
51617;BME280;37697;52.588;13.394;2023-05-08T01:39:37;102214.70;;;6.70;68.86
51617;BME280;37697;52.588;13.394;2023-05-08T01:44:48;102217.19;;;6.63;68.98
51617;BME280;37697;52.588;13.394;2023-05-08T01:50:02;102218.77;;;6.58;68.97
51617;BME280;37697;52.588;13.394;2023-05-08T01:55:12;102220.96;;;6.51;69.06
51617;BME280;37697;52.588;13.394;2023-05-08T02:00:22;102224.34;;;6.45;69.12
51617;BME280;37697;52.588;13.394;2023-05-08T02:05:30;102224.86;;;6.41;69.29
51617;BME280;37697;52.588;13.394;2023-05-08T02:10:37;102227.33;;;6.35;69.43
51617;BME280;37697;52.588;13.394;2023-05-08T02:15:43;102229.36;;;6.28;69.55
51617;BME280;37697;52.588;13.394;2023-05-08T02:20:50;102229.17;;;6.22;69.65
51617;BME280;37697;52.588;13.394;2023-05-08T02:25:57;102227.13;;;6.16;69.78
51617;BME280;37697;52.588;13.394;2023-05-08T02:31:05;102228.00;;;6.09;69.97
51617;BME280;37697;52.588;13.394;2023-05-08T02:36:12;102222.45;;;6.01;70.10
51617;BME280;37697;52.588;13.394;2023-05-08T02:41:20;102222.96;;;5.94;70.11
51617;BME280;37697;52.588;13.394;2023-05-08T02:46:38;102218.50;;;5.89;70.23
51617;BME280;37697;52.588;13.394;2023-05-08T02:51:52;102210.15;;;5.83;70.39
51617;BME280;37697;52.588;13.394;2023-05-08T02:57:02;102216.26;;;5.80;70.73
51617;BME280;37697;52.588;13.394;2023-05-08T03:02:13;102218.95;;;5.75;70.56
51617;BME280;37697;52.588;13.394;2023-05-08T03:07:22;102222.96;;;5.70;70.72
51617;BME280;37697;52.588;13.394;2023-05-08T03:12:30;102225.42;;;5.66;70.73
51617;BME280;37697;52.588;13.394;2023-05-08T03:17:37;102232.10;;;5.62;70.55
51617;BME280;37697;52.588;13.394;2023-05-08T03:22:44;102227.11;;;5.55;71.01
51617;BME280;37697;52.588;13.394;2023-05-08T03:27:52;102225.16;;;5.52;71.06
51617;BME280;37697;52.588;13.394;2023-05-08T03:32:58;102228.13;;;5.44;70.99
51617;BME280;37697;52.588;13.394;2023-05-08T03:38:06;102223.63;;;5.37;71.17
51617;BME280;37697;52.588;13.394;2023-05-08T03:43:12;102219.48;;;5.33;71.39
51617;BME280;37697;52.588;13.394;2023-05-08T03:48:20;102222.09;;;5.27;71.12
51617;BME280;37697;52.588;13.394;2023-05-08T03:53:27;102229.86;;;5.21;71.41
51617;BME280;37697;52.588;13.394;2023-05-08T03:58:37;102233.77;;;5.18;71.65
51617;BME280;37697;52.588;13.394;2023-05-08T04:03:46;102238.86;;;5.13;71.94
51617;BME280;37697;52.588;13.394;2023-05-08T04:09:03;102241.80;;;5.08;72.26
51617;BME280;37697;52.588;13.394;2023-05-08T04:14:15;102244.23;;;5.08;72.32
51617;BME280;37697;52.588;13.394;2023-05-08T04:19:26;102245.31;;;5.09;72.58
51617;BME280;37697;52.588;13.394;2023-05-08T04:24:34;102247.85;;;5.11;72.48
51617;BME280;37697;52.588;13.394;2023-05-08T04:29:42;102249.29;;;5.14;72.58
51617;BME280;37697;52.588;13.394;2023-05-08T04:34:47;102250.03;;;5.18;72.78
51617;BME280;37697;52.588;13.394;2023-05-08T04:39:54;102254.51;;;5.64;72.12
51617;BME280;37697;52.588;13.394;2023-05-08T04:44:59;102257.64;;;6.69;70.32
51617;BME280;37697;52.588;13.394;2023-05-08T04:50:06;102269.79;;;7.36;69.87
51617;BME280;37697;52.588;13.394;2023-05-08T04:55:11;102275.72;;;8.11;68.70
51617;BME280;37697;52.588;13.394;2023-05-08T05:00:19;102282.43;;;8.56;67.42
51617;BME280;37697;52.588;13.394;2023-05-08T05:05:24;102284.75;;;8.52;67.32
51617;BME280;37697;52.588;13.394;2023-05-08T05:10:30;102288.80;;;8.94;66.47
51617;BME280;37697;52.588;13.394;2023-05-08T05:15:35;102288.27;;;9.14;66.18
51617;BME280;37697;52.588;13.394;2023-05-08T05:20:40;102290.83;;;9.34;65.08
51617;BME280;37697;52.588;13.394;2023-05-08T05:25:46;102292.57;;;9.28;65.37
51617;BME280;37697;52.588;13.394;2023-05-08T05:30:51;102300.86;;;9.31;65.29
51617;BME280;37697;52.588;13.394;2023-05-08T05:35:57;102302.01;;;9.46;64.64
51617;BME280;37697;52.588;13.394;2023-05-08T05:41:04;102306.59;;;9.73;64.40
51617;BME280;37697;52.588;13.394;2023-05-08T05:46:10;102308.39;;;10.11;63.34
51617;BME280;37697;52.588;13.394;2023-05-08T05:51:15;102311.17;;;10.40;61.96
51617;BME280;37697;52.588;13.394;2023-05-08T05:56:21;102310.54;;;10.57;61.09
51617;BME280;37697;52.588;13.394;2023-05-08T06:01:27;102315.27;;;10.41;60.84
51617;BME280;37697;52.588;13.394;2023-05-08T06:06:33;102318.23;;;10.16;60.24
51617;BME280;37697;52.588;13.394;2023-05-08T06:11:38;102314.35;;;10.06;61.27
51617;BME280;37697;52.588;13.394;2023-05-08T06:16:44;102319.71;;;10.15;60.94
51617;BME280;37697;52.588;13.394;2023-05-08T06:21:50;102319.00;;;10.09;60.34
51617;BME280;37697;52.588;13.394;2023-05-08T06:26:56;102319.34;;;10.10;59.90
51617;BME280;37697;52.588;13.394;2023-05-08T06:32:01;102319.65;;;10.15;59.90
51617;BME280;37697;52.588;13.394;2023-05-08T06:37:06;102324.20;;;10.36;59.60
51617;BME280;37697;52.588;13.394;2023-05-08T06:42:12;102324.61;;;10.52;59.08
51617;BME280;37697;52.588;13.394;2023-05-08T06:47:17;102321.82;;;10.61;58.54
51617;BME280;37697;52.588;13.394;2023-05-08T06:52:23;102315.70;;;10.73;58.35
51617;BME280;37697;52.588;13.394;2023-05-08T06:57:30;102322.31;;;11.00;57.98
51617;BME280;37697;52.588;13.394;2023-05-08T07:02:35;102325.84;;;11.20;56.22
51617;BME280;37697;52.588;13.394;2023-05-08T07:07:40;102323.83;;;11.26;56.39
51617;BME280;37697;52.588;13.394;2023-05-08T07:12:47;102317.06;;;11.48;56.57
51617;BME280;37697;52.588;13.394;2023-05-08T07:17:52;102314.78;;;11.67;54.89
51617;BME280;37697;52.588;13.394;2023-05-08T07:22:58;102317.17;;;11.74;53.16
51617;BME280;37697;52.588;13.394;2023-05-08T07:28:04;102316.70;;;11.81;52.89
51617;BME280;37697;52.588;13.394;2023-05-08T07:33:09;102319.94;;;11.92;53.44
51617;BME280;37697;52.588;13.394;2023-05-08T07:38:14;102318.25;;;12.04;52.17
51617;BME280;37697;52.588;13.394;2023-05-08T07:43:20;102321.69;;;12.22;51.90
51617;BME280;37697;52.588;13.394;2023-05-08T07:48:25;102321.73;;;12.37;50.71
51617;BME280;37697;52.588;13.394;2023-05-08T07:53:31;102322.45;;;12.73;51.05
51617;BME280;37697;52.588;13.394;2023-05-08T07:58:36;102320.11;;;13.06;50.40
51617;BME280;37697;52.588;13.394;2023-05-08T08:03:41;102310.23;;;13.36;49.79
51617;BME280;37697;52.588;13.394;2023-05-08T08:08:47;102305.98;;;13.56;48.58
51617;BME280;37697;52.588;13.394;2023-05-08T08:13:53;102300.42;;;13.69;48.33
51617;BME280;37697;52.588;13.394;2023-05-08T08:18:58;102296.48;;;13.79;47.05
51617;BME280;37697;52.588;13.394;2023-05-08T08:24:04;102292.02;;;13.92;46.96
51617;BME280;37697;52.588;13.394;2023-05-08T08:29:10;102290.70;;;14.25;46.87
51617;BME280;37697;52.588;13.394;2023-05-08T08:34:15;102293.25;;;14.43;45.85
51617;BME280;37697;52.588;13.394;2023-05-08T08:39:20;102292.20;;;14.61;45.46
51617;BME280;37697;52.588;13.394;2023-05-08T08:44:27;102292.86;;;14.82;44.50
51617;BME280;37697;52.588;13.394;2023-05-08T08:49:35;102281.04;;;15.03;44.29
51617;BME280;37697;52.588;13.394;2023-05-08T08:54:46;102285.95;;;15.09;41.47
51617;BME280;37697;52.588;13.394;2023-05-08T08:59:54;102279.49;;;15.06;41.97
51617;BME280;37697;52.588;13.394;2023-05-08T09:05:00;102278.16;;;15.32;42.77
51617;BME280;37697;52.588;13.394;2023-05-08T09:10:07;102277.27;;;15.61;42.19
51617;BME280;37697;52.588;13.394;2023-05-08T09:15:13;102275.17;;;15.83;42.75
51617;BME280;37697;52.588;13.394;2023-05-08T09:20:19;102274.30;;;16.00;41.77
51617;BME280;37697;52.588;13.394;2023-05-08T09:25:27;102272.58;;;16.09;41.83
51617;BME280;37697;52.588;13.394;2023-05-08T09:30:52;102269.10;;;16.21;40.89
51617;BME280;37697;52.588;13.394;2023-05-08T09:35:59;102274.02;;;16.22;40.27
51617;BME280;37697;52.588;13.394;2023-05-08T09:41:09;102266.45;;;16.33;40.54
51617;BME280;37697;52.588;13.394;2023-05-08T09:46:23;102265.33;;;16.46;40.08
51617;BME280;37697;52.588;13.394;2023-05-08T09:51:30;102263.48;;;16.49;39.54
51617;BME280;37697;52.588;13.394;2023-05-08T09:56:37;102259.59;;;16.67;39.89
51617;BME280;37697;52.588;13.394;2023-05-08T10:01:43;102263.63;;;16.97;40.35
51617;BME280;37697;52.588;13.394;2023-05-08T10:06:57;102264.02;;;17.14;39.66
51617;BME280;37697;52.588;13.394;2023-05-08T10:12:03;102256.85;;;17.11;38.75
51617;BME280;37697;52.588;13.394;2023-05-08T10:17:10;102254.88;;;17.08;38.52
51617;BME280;37697;52.588;13.394;2023-05-08T10:22:18;102254.27;;;17.08;38.17
51617;BME280;37697;52.588;13.394;2023-05-08T10:27:33;102255.44;;;17.11;37.49
51617;BME280;37697;52.588;13.394;2023-05-08T10:32:43;102249.83;;;17.10;36.86
51617;BME280;37697;52.588;13.394;2023-05-08T10:37:49;102242.75;;;17.16;37.39
51617;BME280;37697;52.588;13.394;2023-05-08T10:42:56;102234.98;;;17.40;37.20
51617;BME280;37697;52.588;13.394;2023-05-08T10:48:10;102231.18;;;17.55;37.33
51617;BME280;37697;52.588;13.394;2023-05-08T10:53:30;102219.06;;;17.68;36.59
51617;BME280;37697;52.588;13.394;2023-05-08T10:58:38;102213.08;;;17.90;36.58
51617;BME280;37697;52.588;13.394;2023-05-08T11:03:48;102220.48;;;17.95;35.53
51617;BME280;37697;52.588;13.394;2023-05-08T11:08:57;102211.94;;;17.93;35.62
51617;BME280;37697;52.588;13.394;2023-05-08T11:14:13;102208.44;;;18.01;34.90
51617;BME280;37697;52.588;13.394;2023-05-08T11:19:21;102201.60;;;18.14;35.48
51617;BME280;37697;52.588;13.394;2023-05-08T11:24:34;102212.54;;;18.34;34.85
51617;BME280;37697;52.588;13.394;2023-05-08T11:29:41;102205.14;;;18.47;35.07
51617;BME280;37697;52.588;13.394;2023-05-08T11:34:47;102201.60;;;18.58;34.24
51617;BME280;37697;52.588;13.394;2023-05-08T11:39:53;102198.36;;;18.52;33.38
51617;BME280;37697;52.588;13.394;2023-05-08T11:45:04;102192.36;;;18.46;33.33
51617;BME280;37697;52.588;13.394;2023-05-08T11:50:12;102191.54;;;18.53;32.97
51617;BME280;37697;52.588;13.394;2023-05-08T11:55:18;102187.45;;;18.55;32.41
51617;BME280;37697;52.588;13.394;2023-05-08T12:00:24;102178.96;;;18.78;33.42
51617;BME280;37697;52.588;13.394;2023-05-08T12:05:30;102175.95;;;18.89;33.15
51617;BME280;37697;52.588;13.394;2023-05-08T12:10:47;102175.18;;;19.02;32.60
51617;BME280;37697;52.588;13.394;2023-05-08T12:15:54;102169.27;;;19.07;33.24
51617;BME280;37697;52.588;13.394;2023-05-08T12:21:01;102175.69;;;19.14;32.35
51617;BME280;37697;52.588;13.394;2023-05-08T12:26:08;102169.14;;;19.14;31.49
51617;BME280;37697;52.588;13.394;2023-05-08T12:31:14;102170.23;;;19.10;30.97
51617;BME280;37697;52.588;13.394;2023-05-08T12:36:20;102161.87;;;19.17;31.66
51617;BME280;37697;52.588;13.394;2023-05-08T12:41:25;102157.85;;;19.25;30.89
51617;BME280;37697;52.588;13.394;2023-05-08T12:46:31;102150.56;;;19.32;31.80
51617;BME280;37697;52.588;13.394;2023-05-08T12:51:38;102145.96;;;19.46;31.23
51617;BME280;37697;52.588;13.394;2023-05-08T12:56:45;102149.48;;;19.45;31.49
51617;BME280;37697;52.588;13.394;2023-05-08T13:01:51;102140.81;;;19.55;32.21
51617;BME280;37697;52.588;13.394;2023-05-08T13:06:57;102143.55;;;19.62;31.44
51617;BME280;37697;52.588;13.394;2023-05-08T13:12:04;102142.14;;;19.61;31.28
51617;BME280;37697;52.588;13.394;2023-05-08T13:17:10;102127.36;;;19.64;30.91
51617;BME280;37697;52.588;13.394;2023-05-08T13:22:20;102124.29;;;19.69;30.71
51617;BME280;37697;52.588;13.394;2023-05-08T13:27:30;102118.27;;;19.72;30.89
51617;BME280;37697;52.588;13.394;2023-05-08T13:32:36;102100.52;;;19.71;30.95
51617;BME280;37697;52.588;13.394;2023-05-08T13:37:41;102097.90;;;19.64;30.40
51617;BME280;37697;52.588;13.394;2023-05-08T13:42:47;102100.09;;;19.56;30.24
51617;BME280;37697;52.588;13.394;2023-05-08T13:47:53;102092.78;;;19.41;29.37
51617;BME280;37697;52.588;13.394;2023-05-08T13:52:59;102089.58;;;19.46;30.37
51617;BME280;37697;52.588;13.394;2023-05-08T13:58:04;102079.45;;;19.55;31.12
51617;BME280;37697;52.588;13.394;2023-05-08T14:03:10;102076.88;;;19.68;31.37
51617;BME280;37697;52.588;13.394;2023-05-08T14:08:15;102067.95;;;19.66;31.54
51617;BME280;37697;52.588;13.394;2023-05-08T14:13:21;102057.48;;;19.55;31.62
51617;BME280;37697;52.588;13.394;2023-05-08T14:18:27;102065.52;;;19.39;31.59
51617;BME280;37697;52.588;13.394;2023-05-08T14:23:32;102058.02;;;19.21;31.81
51617;BME280;37697;52.588;13.394;2023-05-08T14:28:39;102063.19;;;19.10;32.02
51617;BME280;37697;52.588;13.394;2023-05-08T14:33:44;102056.49;;;19.05;32.13
51617;BME280;37697;52.588;13.394;2023-05-08T14:38:50;102048.48;;;18.95;32.01
51617;BME280;37697;52.588;13.394;2023-05-08T14:43:56;102047.33;;;18.91;31.89
51617;BME280;37697;52.588;13.394;2023-05-08T14:49:01;102044.83;;;18.80;32.10
51617;BME280;37697;52.588;13.394;2023-05-08T14:54:07;102043.16;;;18.72;32.22
51617;BME280;37697;52.588;13.394;2023-05-08T14:59:13;102039.19;;;18.65;32.32
51617;BME280;37697;52.588;13.394;2023-05-08T15:04:19;102032.59;;;18.61;32.28
51617;BME280;37697;52.588;13.394;2023-05-08T15:09:25;102047.33;;;18.59;32.87
51617;BME280;37697;52.588;13.394;2023-05-08T15:14:30;102038.73;;;18.63;32.65
51617;BME280;37697;52.588;13.394;2023-05-08T15:19:36;102039.86;;;18.54;32.61
51617;BME280;37697;52.588;13.394;2023-05-08T15:24:41;102041.73;;;18.47;32.74
51617;BME280;37697;52.588;13.394;2023-05-08T15:29:48;102038.21;;;18.43;33.14
51617;BME280;37697;52.588;13.394;2023-05-08T15:34:54;102038.27;;;18.41;33.10
51617;BME280;37697;52.588;13.394;2023-05-08T15:40:00;102038.13;;;18.34;33.32
51617;BME280;37697;52.588;13.394;2023-05-08T15:45:06;102030.09;;;18.35;33.64
51617;BME280;37697;52.588;13.394;2023-05-08T15:50:12;102026.70;;;18.27;33.19
51617;BME280;37697;52.588;13.394;2023-05-08T15:55:19;102026.73;;;18.21;33.55
51617;BME280;37697;52.588;13.394;2023-05-08T16:00:27;102025.32;;;18.17;33.47
51617;BME280;37697;52.588;13.394;2023-05-08T16:05:49;102025.02;;;18.12;33.84
51617;BME280;37697;52.588;13.394;2023-05-08T16:10:55;102021.34;;;18.12;33.91
51617;BME280;37697;52.588;13.394;2023-05-08T16:16:04;102020.78;;;18.07;33.77
51617;BME280;37697;52.588;13.394;2023-05-08T16:21:10;102010.39;;;17.98;34.05
51617;BME280;37697;52.588;13.394;2023-05-08T16:26:17;102003.68;;;17.86;33.76
51617;BME280;37697;52.588;13.394;2023-05-08T16:31:24;102009.46;;;17.70;33.83
51617;BME280;37697;52.588;13.394;2023-05-08T16:36:30;102007.13;;;17.60;34.09
51617;BME280;37697;52.588;13.394;2023-05-08T16:41:35;102005.85;;;17.53;34.44
51617;BME280;37697;52.588;13.394;2023-05-08T16:46:41;102001.79;;;17.47;34.59
51617;BME280;37697;52.588;13.394;2023-05-08T16:51:46;102006.24;;;17.36;35.03
51617;BME280;37697;52.588;13.394;2023-05-08T16:56:52;102005.00;;;17.24;35.03
51617;BME280;37697;52.588;13.394;2023-05-08T17:01:57;102005.80;;;17.15;35.66
51617;BME280;37697;52.588;13.394;2023-05-08T17:07:03;102008.70;;;17.08;35.81
51617;BME280;37697;52.588;13.394;2023-05-08T17:12:09;102004.19;;;16.95;35.88
51617;BME280;37697;52.588;13.394;2023-05-08T17:17:15;102002.12;;;16.80;35.92
51617;BME280;37697;52.588;13.394;2023-05-08T17:22:20;101999.52;;;16.68;36.38
51617;BME280;37697;52.588;13.394;2023-05-08T17:27:26;101998.55;;;16.54;36.46
51617;BME280;37697;52.588;13.394;2023-05-08T17:32:31;101998.07;;;16.44;36.78
51617;BME280;37697;52.588;13.394;2023-05-08T17:37:37;101995.88;;;16.30;36.73
51617;BME280;37697;52.588;13.394;2023-05-08T17:42:42;101998.71;;;16.20;37.08
51617;BME280;37697;52.588;13.394;2023-05-08T17:47:48;102000.85;;;16.08;37.06
51617;BME280;37697;52.588;13.394;2023-05-08T17:52:53;102000.73;;;15.98;37.34
51617;BME280;37697;52.588;13.394;2023-05-08T17:57:59;101998.53;;;15.85;37.39
51617;BME280;37697;52.588;13.394;2023-05-08T18:03:04;102003.83;;;15.72;37.50
51617;BME280;37697;52.588;13.394;2023-05-08T18:08:10;102008.79;;;15.56;37.56
51617;BME280;37697;52.588;13.394;2023-05-08T18:13:15;102014.19;;;15.43;37.60
51617;BME280;37697;52.588;13.394;2023-05-08T18:18:21;102021.70;;;15.30;37.96
51617;BME280;37697;52.588;13.394;2023-05-08T18:23:26;102026.18;;;15.18;38.22
51617;BME280;37697;52.588;13.394;2023-05-08T18:28:32;102026.59;;;15.03;38.32
51617;BME280;37697;52.588;13.394;2023-05-08T18:33:37;102022.70;;;14.86;38.30
51617;BME280;37697;52.588;13.394;2023-05-08T18:38:43;102032.13;;;14.70;38.46
51617;BME280;37697;52.588;13.394;2023-05-08T18:43:49;102034.69;;;14.57;38.57
51617;BME280;37697;52.588;13.394;2023-05-08T18:48:54;102037.86;;;14.44;38.78
51617;BME280;37697;52.588;13.394;2023-05-08T18:54:00;102038.33;;;14.30;38.99
51617;BME280;37697;52.588;13.394;2023-05-08T18:59:06;102041.52;;;14.19;38.99
51617;BME280;37697;52.588;13.394;2023-05-08T19:04:11;102046.04;;;14.07;39.42
51617;BME280;37697;52.588;13.394;2023-05-08T19:09:16;102048.04;;;13.92;39.56
51617;BME280;37697;52.588;13.394;2023-05-08T19:14:22;102054.04;;;13.79;39.86
51617;BME280;37697;52.588;13.394;2023-05-08T19:19:27;102056.08;;;13.70;40.16
51617;BME280;37697;52.588;13.394;2023-05-08T19:24:32;102062.65;;;13.60;40.33
51617;BME280;37697;52.588;13.394;2023-05-08T19:29:38;102069.05;;;13.51;40.58
51617;BME280;37697;52.588;13.394;2023-05-08T19:34:44;102060.86;;;13.42;40.76
51617;BME280;37697;52.588;13.394;2023-05-08T19:39:49;102059.19;;;13.34;41.07
51617;BME280;37697;52.588;13.394;2023-05-08T19:44:54;102057.50;;;13.27;41.36
51617;BME280;37697;52.588;13.394;2023-05-08T19:50:00;102056.40;;;13.19;41.66
51617;BME280;37697;52.588;13.394;2023-05-08T19:55:07;102060.52;;;13.09;41.84
51617;BME280;37697;52.588;13.394;2023-05-08T20:00:13;102061.57;;;13.00;41.94
51617;BME280;37697;52.588;13.394;2023-05-08T20:05:19;102063.02;;;12.91;42.14
51617;BME280;37697;52.588;13.394;2023-05-08T20:10:27;102067.90;;;12.80;42.64
51617;BME280;37697;52.588;13.394;2023-05-08T20:15:33;102071.17;;;12.69;42.94
51617;BME280;37697;52.588;13.394;2023-05-08T20:20:38;102065.58;;;12.62;42.81
51617;BME280;37697;52.588;13.394;2023-05-08T20:25:43;102064.34;;;12.56;43.24
51617;BME280;37697;52.588;13.394;2023-05-08T20:30:52;102061.73;;;12.48;43.31
51617;BME280;37697;52.588;13.394;2023-05-08T20:35:57;102068.95;;;12.39;43.38
51617;BME280;37697;52.588;13.394;2023-05-08T20:41:03;102070.38;;;12.31;43.74
51617;BME280;37697;52.588;13.394;2023-05-08T20:46:09;102068.91;;;12.23;43.97
51617;BME280;37697;52.588;13.394;2023-05-08T20:51:15;102066.68;;;12.15;44.12
51617;BME280;37697;52.588;13.394;2023-05-08T20:56:20;102064.56;;;12.05;44.26
51617;BME280;37697;52.588;13.394;2023-05-08T21:01:27;102064.64;;;11.96;44.56
51617;BME280;37697;52.588;13.394;2023-05-08T21:06:32;102065.40;;;11.85;44.83
51617;BME280;37697;52.588;13.394;2023-05-08T21:11:38;102067.19;;;11.78;44.91
51617;BME280;37697;52.588;13.394;2023-05-08T21:16:43;102065.01;;;11.70;45.29
51617;BME280;37697;52.588;13.394;2023-05-08T21:21:49;102063.73;;;11.62;45.42
51617;BME280;37697;52.588;13.394;2023-05-08T21:26:54;102065.13;;;11.54;45.67
51617;BME280;37697;52.588;13.394;2023-05-08T21:32:00;102056.75;;;11.45;45.89
51617;BME280;37697;52.588;13.394;2023-05-08T21:37:05;102050.53;;;11.32;46.12
51617;BME280;37697;52.588;13.394;2023-05-08T21:42:11;102048.15;;;11.22;46.47
51617;BME280;37697;52.588;13.394;2023-05-08T21:47:16;102049.42;;;11.14;46.72
51617;BME280;37697;52.588;13.394;2023-05-08T21:52:22;102047.27;;;11.05;47.06
51617;BME280;37697;52.588;13.394;2023-05-08T21:57:28;102048.70;;;10.95;47.16
51617;BME280;37697;52.588;13.394;2023-05-08T22:02:33;102049.06;;;10.85;47.36
51617;BME280;37697;52.588;13.394;2023-05-08T22:07:39;102043.42;;;10.74;47.61
51617;BME280;37697;52.588;13.394;2023-05-08T22:12:45;102044.40;;;10.69;47.82
51617;BME280;37697;52.588;13.394;2023-05-08T22:17:50;102040.59;;;10.61;48.18
51617;BME280;37697;52.588;13.394;2023-05-08T22:22:56;102042.51;;;10.53;48.35
51617;BME280;37697;52.588;13.394;2023-05-08T22:28:02;102037.06;;;10.42;48.36
51617;BME280;37697;52.588;13.394;2023-05-08T22:33:07;102032.57;;;10.34;48.82
51617;BME280;37697;52.588;13.394;2023-05-08T22:38:13;102027.83;;;10.26;49.24
51617;BME280;37697;52.588;13.394;2023-05-08T22:43:20;102029.23;;;10.19;49.24
51617;BME280;37697;52.588;13.394;2023-05-08T22:48:26;102023.58;;;10.10;49.56
51617;BME280;37697;52.588;13.394;2023-05-08T22:53:32;102025.64;;;10.02;49.71
51617;BME280;37697;52.588;13.394;2023-05-08T22:58:37;102022.54;;;9.96;49.96
51617;BME280;37697;52.588;13.394;2023-05-08T23:03:43;102012.05;;;9.89;50.21
51617;BME280;37697;52.588;13.394;2023-05-08T23:08:48;102005.17;;;9.80;50.75
51617;BME280;37697;52.588;13.394;2023-05-08T23:13:53;102003.21;;;9.73;50.82
51617;BME280;37697;52.588;13.394;2023-05-08T23:18:59;101995.09;;;9.67;51.24
51617;BME280;37697;52.588;13.394;2023-05-08T23:24:05;101985.87;;;9.61;51.01
51617;BME280;37697;52.588;13.394;2023-05-08T23:29:11;101981.77;;;9.54;51.45
51617;BME280;37697;52.588;13.394;2023-05-08T23:34:16;101976.88;;;9.47;51.46
51617;BME280;37697;52.588;13.394;2023-05-08T23:39:21;101972.77;;;9.40;51.60
51617;BME280;37697;52.588;13.394;2023-05-08T23:44:27;101971.96;;;9.36;52.18
51617;BME280;37697;52.588;13.394;2023-05-08T23:49:33;101969.46;;;9.31;52.62
51617;BME280;37697;52.588;13.394;2023-05-08T23:54:38;101966.79;;;9.25;52.44
51617;BME280;37697;52.588;13.394;2023-05-08T23:59:44;101957.96;;;9.21;52.52
